createdAt,value
2019-05-16T00:02:37.699Z,6.27
2019-05-16T00:07:41.588Z,5.73
2019-05-16T00:12:48.413Z,4.63
2019-05-16T00:17:51.761Z,2.87
2019-05-16T00:22:55.977Z,6.90
2019-05-16T00:28:00.246Z,9.30
2019-05-16T00:33:04.481Z,5.13
2019-05-16T00:38:08.956Z,8.63
2019-05-16T00:43:13.265Z,5.97
2019-05-16T00:48:18.245Z,6.37
2019-05-16T00:53:22.584Z,8.93
2019-05-16T00:58:28.487Z,6.37
2019-05-16T01:03:32.844Z,7.07
2019-05-16T01:08:38.534Z,7.80
2019-05-16T01:13:42.911Z,7.83
2019-05-16T01:18:48.578Z,9.73
2019-05-16T01:23:53.089Z,9.17
2019-05-16T01:28:57.712Z,12.57
2019-05-16T01:34:02.035Z,9.53
2019-05-16T01:39:07.944Z,7.77
2019-05-16T01:44:12.494Z,8.13
2019-05-16T01:49:18.714Z,10.43
2019-05-16T01:54:22.726Z,12.67
2019-05-16T01:59:28.380Z,9.00
2019-05-16T02:04:32.712Z,9.33
2019-05-16T02:09:38.436Z,7.30
2019-05-16T02:14:42.855Z,9.13
2019-05-16T02:19:48.580Z,6.50
2019-05-16T02:24:52.888Z,8.00
2019-05-16T02:29:57.129Z,9.90
2019-05-16T02:35:01.514Z,11.37
2019-05-16T02:40:07.342Z,9.83
2019-05-16T02:45:12.003Z,7.00
2019-05-16T02:50:17.789Z,11.77
2019-05-16T02:55:22.031Z,6.90
2019-05-16T03:00:36.967Z,8.03
2019-05-16T03:05:43.306Z,8.17
2019-05-16T03:10:51.761Z,5.67
2019-05-16T03:15:55.250Z,9.37
2019-05-16T03:21:02.015Z,4.80
2019-05-16T03:26:06.219Z,8.37
2019-05-16T03:31:14.798Z,7.33
2019-05-16T03:36:16.639Z,5.20
2019-05-16T03:41:21.548Z,5.67
2019-05-16T03:46:25.983Z,7.63
2019-05-16T03:51:31.010Z,6.27
2019-05-16T03:56:35.407Z,7.97
2019-05-16T04:01:41.011Z,6.23
2019-05-16T04:06:45.433Z,7.50
2019-05-16T04:11:50.944Z,6.57
2019-05-16T04:16:55.408Z,5.20
2019-05-16T04:22:01.372Z,9.00
2019-05-16T04:27:05.589Z,8.70
2019-05-16T04:32:11.048Z,5.07
2019-05-16T04:37:15.451Z,5.43
2019-05-16T04:42:21.441Z,4.97
2019-05-16T04:47:25.755Z,4.57
2019-05-16T04:52:30.681Z,5.73
2019-05-16T04:57:35.140Z,4.63
2019-05-16T05:02:41.897Z,3.70
2019-05-16T05:07:45.332Z,4.23
2019-05-16T05:12:51.565Z,5.40
2019-05-16T05:17:55.536Z,4.80
2019-05-16T05:23:00.450Z,4.90
2019-05-16T05:28:04.776Z,5.57
2019-05-16T05:33:10.154Z,2.97
2019-05-16T05:38:14.446Z,2.90
2019-05-16T05:43:21.151Z,6.67
2019-05-16T05:48:24.648Z,4.20
2019-05-16T05:53:30.046Z,26.13
2019-05-16T05:58:34.610Z,5.57
2019-05-16T06:03:39.899Z,4.77
2019-05-16T06:08:44.158Z,8.57
2019-05-16T06:13:50.022Z,6.93
2019-05-16T06:18:56.735Z,4.67
2019-05-16T06:24:00.500Z,10.07
2019-05-16T06:29:04.778Z,5.37
2019-05-16T06:34:14.852Z,2.67
2019-05-16T06:39:14.938Z,3.67
2019-05-16T06:44:20.303Z,4.43
2019-05-16T06:49:24.630Z,5.27
2019-05-16T06:54:29.922Z,2.80
2019-05-16T06:59:34.415Z,4.23
2019-05-16T07:04:39.814Z,3.57
2019-05-16T07:09:57.186Z,4.00
2019-05-16T07:14:50.665Z,4.13
2019-05-16T07:19:54.983Z,3.13
2019-05-16T07:24:59.863Z,4.13
2019-05-16T07:30:04.531Z,5.13
2019-05-16T07:35:09.743Z,4.13
2019-05-16T07:40:20.095Z,8.07
2019-05-16T07:45:21.032Z,4.63
2019-05-16T07:50:25.221Z,6.50
2019-05-16T07:55:30.825Z,4.77
2019-05-16T08:00:49.820Z,8.03
2019-05-16T08:05:41.395Z,7.13
2019-05-16T08:10:46.889Z,8.40
2019-05-16T08:15:51.273Z,11.83
2019-05-16T08:20:55.534Z,11.17
2019-05-16T08:26:01.195Z,8.60
2019-05-16T08:31:05.723Z,8.63
2019-05-16T08:46:22.035Z,6.27
2019-05-16T08:51:26.258Z,11.23
2019-05-16T08:56:31.790Z,8.67
2019-05-16T09:01:36.344Z,5.70
2019-05-16T09:06:42.426Z,7.93
2019-05-16T09:10:11.000Z,8.07
2019-05-16T09:10:39.169Z,8.00
2019-05-16T09:11:48.752Z,5.77
2019-05-16T09:16:52.454Z,4.47
2019-05-16T09:21:58.052Z,5.67
2019-05-16T09:27:02.509Z,9.83
2019-05-16T09:32:15.843Z,3.70
2019-05-16T09:37:12.685Z,3.67
2019-05-16T09:42:17.243Z,2.93
2019-05-16T09:47:21.543Z,8.60
2019-05-16T09:52:27.379Z,5.30
2019-05-16T09:57:31.704Z,5.97
2019-05-16T10:02:36.740Z,3.50
2019-05-16T10:07:41.095Z,4.37
2019-05-16T10:12:45.320Z,4.03
2019-05-16T10:17:49.570Z,8.00
2019-05-16T10:22:53.806Z,4.10
2019-05-16T10:27:58.048Z,5.78
2019-05-16T10:33:02.291Z,6.00
2019-05-16T10:38:06.519Z,5.40
2019-05-16T10:43:10.792Z,3.50
2019-05-16T10:48:17.274Z,8.50
2019-05-16T10:53:51.471Z,7.72
2019-05-16T10:58:36.687Z,5.12
2019-05-16T11:03:32.894Z,3.58
2019-05-16T11:08:39.661Z,5.12
2019-05-16T11:13:43.099Z,5.97
2019-05-16T11:18:47.358Z,5.50
2019-05-16T11:23:51.590Z,5.12
2019-05-16T11:28:56.760Z,4.60
2019-05-16T11:34:01.073Z,3.60
2019-05-16T11:39:08.599Z,3.55
2019-05-16T11:44:13.101Z,4.05
2019-05-16T11:49:17.374Z,3.00
2019-05-16T11:54:21.641Z,5.10
2019-05-16T11:59:25.876Z,5.62
2019-05-16T12:04:30.127Z,4.92
2019-05-16T12:09:42.716Z,3.80
2019-05-16T12:14:40.372Z,6.15
2019-05-16T12:19:47.528Z,3.50
2019-05-16T12:24:50.603Z,6.10
2019-05-16T12:29:58.707Z,6.50
2019-05-16T12:35:00.803Z,4.72
2019-05-16T12:40:05.465Z,6.67
2019-05-16T12:45:10.201Z,7.50
2019-05-16T12:50:17.790Z,7.28
2019-05-16T12:55:21.331Z,8.08
2019-05-16T13:00:27.654Z,10.40
2019-05-16T13:05:31.903Z,9.58
2019-05-16T13:10:38.048Z,8.08
2019-05-16T13:15:42.552Z,10.93
2019-05-16T13:20:47.017Z,12.70
2019-05-16T13:25:51.369Z,11.97
2019-05-16T13:30:57.699Z,13.68
2019-05-16T13:36:01.579Z,34.50
2019-05-16T13:41:07.502Z,22.40
2019-05-16T13:46:12.130Z,15.72
2019-05-16T13:51:18.913Z,16.10
2019-05-16T13:56:22.345Z,18.50
2019-05-16T14:01:27.816Z,15.60
2019-05-16T14:06:32.218Z,18.27
2019-05-16T14:11:36.788Z,26.70
2019-05-16T14:16:41.050Z,18.52
2019-05-16T14:21:47.845Z,17.48
2019-05-16T14:26:51.286Z,20.17
2019-05-16T14:31:56.779Z,18.92
2019-05-16T14:37:01.069Z,20.57
2019-05-16T14:42:05.324Z,23.92
2019-05-16T14:47:09.595Z,19.52
2019-05-16T14:52:13.953Z,19.52
2019-05-16T14:57:18.221Z,31.10
2019-05-16T15:02:22.638Z,27.17
2019-05-16T15:07:27.653Z,27.27
2019-05-16T15:12:32.034Z,28.80
2019-05-16T15:17:36.299Z,31.80
2019-05-16T15:22:40.565Z,31.48
2019-05-16T15:27:44.831Z,31.42
2019-05-16T15:32:49.113Z,27.22
2019-05-16T15:37:53.363Z,25.97
2019-05-16T15:42:59.130Z,30.20
2019-05-16T15:48:03.684Z,24.77
2019-05-16T15:53:08.182Z,23.60
2019-05-16T15:58:12.601Z,23.87
2019-05-16T16:03:17.744Z,24.72
2019-05-16T16:08:22.199Z,25.17
2019-05-16T16:13:26.937Z,33.35
2019-05-16T16:18:31.342Z,32.30
2019-05-16T16:23:37.303Z,103.55
2019-05-16T16:28:41.600Z,182.32
2019-05-16T16:33:46.067Z,35.40
2019-05-16T16:38:50.320Z,88.45
2019-05-16T16:43:56.938Z,32.67
2019-05-16T16:49:00.759Z,34.70
2019-05-16T16:54:07.461Z,27.32
2019-05-16T16:59:10.993Z,29.75
2019-05-16T17:04:17.504Z,27.07
2019-05-16T17:09:23.196Z,25.52
2019-05-16T17:14:27.526Z,29.80
2019-05-16T17:19:31.768Z,28.85
2019-05-16T17:24:36.637Z,29.85
2019-05-16T17:29:40.954Z,29.60
2019-05-16T17:34:45.206Z,30.95
2019-05-16T17:39:49.481Z,156.45
2019-05-16T17:44:53.757Z,31.12
2019-05-16T17:49:58.040Z,30.65
2019-05-16T17:55:02.930Z,32.95
2019-05-16T18:00:12.813Z,35.05
2019-05-16T18:05:14.171Z,32.25
2019-05-16T18:10:19.992Z,31.02
2019-05-16T18:15:24.558Z,34.78
2019-05-16T18:20:29.107Z,31.57
2019-05-16T18:25:33.396Z,38.78
2019-05-16T18:30:37.687Z,37.15
2019-05-16T18:35:41.962Z,74.00
2019-05-16T18:40:47.522Z,46.45
2019-05-16T18:45:52.038Z,42.53
2019-05-16T18:50:57.788Z,38.08
2019-05-16T18:56:03.357Z,40.63
2019-05-16T19:01:07.866Z,35.65
2019-05-16T19:06:17.017Z,36.98
2019-05-16T19:11:21.325Z,33.83
2019-05-16T19:16:26.230Z,33.75
2019-05-16T19:21:31.085Z,37.78
2019-05-16T19:26:37.232Z,32.25
2019-05-16T19:31:41.392Z,30.00
2019-05-16T19:36:47.051Z,34.78
2019-05-16T19:41:51.537Z,30.92
2019-05-16T19:46:57.513Z,29.77
2019-05-16T19:52:01.873Z,31.12
2019-05-16T19:57:07.190Z,27.75
2019-05-16T20:02:11.788Z,26.17
2019-05-16T20:07:16.796Z,25.55
2019-05-16T20:12:21.318Z,24.80
2019-05-16T20:17:26.947Z,32.63
2019-05-16T20:22:31.351Z,29.23
2019-05-16T20:27:36.853Z,30.80
2019-05-16T20:32:41.300Z,42.62
2019-05-16T20:37:47.316Z,36.20
2019-05-16T20:42:51.738Z,34.73
2019-05-16T20:48:07.993Z,31.73
2019-05-16T20:53:01.956Z,29.20
2019-05-16T20:58:07.695Z,29.27
2019-05-16T21:03:12.295Z,44.73
2019-05-16T21:08:17.282Z,27.98
2019-05-16T21:13:21.697Z,33.23
2019-05-16T21:18:25.949Z,29.92
2019-05-16T21:23:30.235Z,31.27
2019-05-16T21:28:36.777Z,61.80
2019-05-16T21:33:40.461Z,34.20
2019-05-16T21:38:46.808Z,28.50
2019-05-16T21:43:50.819Z,28.42
2019-05-16T21:48:56.722Z,30.37
2019-05-16T21:54:01.092Z,31.50
2019-05-16T21:59:06.975Z,32.23
2019-05-16T22:04:11.395Z,29.85
2019-05-16T22:09:15.647Z,31.40
2019-05-16T22:14:24.318Z,31.48
2019-05-16T22:19:28.576Z,34.40
2019-05-16T22:24:32.832Z,34.88
2019-05-16T22:29:37.251Z,33.40
2019-05-16T22:34:41.508Z,39.18
2019-05-16T22:39:45.825Z,35.58
2019-05-16T22:44:50.176Z,40.45
2019-05-16T22:49:56.602Z,35.60
2019-05-16T22:55:00.437Z,39.05
2019-05-16T23:00:07.567Z,43.93
2019-05-16T23:05:11.272Z,41.17
2019-05-16T23:10:16.643Z,43.50
2019-05-16T23:15:21.230Z,41.80
2019-05-16T23:20:27.539Z,44.23
2019-05-16T23:25:31.462Z,41.37
2019-05-16T23:30:36.596Z,45.20
2019-05-16T23:35:40.993Z,41.50
2019-05-16T23:40:46.792Z,44.67
2019-05-16T23:45:51.217Z,39.67
2019-05-16T23:50:56.927Z,40.00
2019-05-16T23:56:01.311Z,43.00
